Time;durP1;ratioP1;P1;durP2;ratioP2;P2;SDS_P1;SDS_P2;PMS_P1;PMS_P2;Temp;Humidity;BMP_temperature;BMP_pressure;BME280_temperature;BME280_humidity;BME280_pressure;Samples;Min_cycle;Max_cycle;Signal;HPM_P1;HPM_P2
2021/04/25 00:02:08;;;;;;;9.00;3.05;;;;;;;7.06;64.18;102977.25;5070811;28;20048;-46
2021/04/25 00:04:36;;;;;;;4.97;2.42;;;;;;;7.04;64.00;102982.19;5070391;28;20045;-47
2021/04/25 00:07:04;;;;;;;6.97;2.90;;;;;;;7.03;64.48;102982.41;5069928;28;20098;-47
2021/04/25 00:09:31;;;;;;;7.13;2.92;;;;;;;7.02;64.18;102980.72;5070329;28;20072;-49
2021/04/25 00:11:59;;;;;;;8.05;2.83;;;;;;;7.01;64.12;102984.56;5071140;28;20119;-47
2021/04/25 00:14:26;;;;;;;9.02;3.10;;;;;;;6.98;63.61;102974.78;5069519;28;20102;-47
2021/04/25 00:16:53;;;;;;;6.80;2.50;;;;;;;6.95;63.49;102978.00;5070669;28;20053;-49
2021/04/25 00:19:20;;;;;;;9.07;3.30;;;;;;;6.94;63.60;102973.50;5070069;28;20492;-46
2021/04/25 00:21:47;;;;;;;6.43;2.67;;;;;;;6.88;63.13;102969.69;5069852;28;20489;-47
2021/04/25 00:24:14;;;;;;;6.35;2.50;;;;;;;6.83;63.08;102972.28;5052020;28;20051;-46
2021/04/25 00:26:41;;;;;;;6.70;2.72;;;;;;;6.77;63.31;102969.56;5070313;28;20048;-46
2021/04/25 00:29:08;;;;;;;7.55;2.78;;;;;;;6.69;63.06;102969.81;5070253;28;20037;-48
2021/04/25 00:31:35;;;;;;;5.45;2.90;;;;;;;6.63;63.28;102967.91;5070415;28;20083;-48
2021/04/25 00:34:02;;;;;;;7.55;3.22;;;;;;;6.56;63.33;102966.06;5070138;28;20611;-47
2021/04/25 00:36:29;;;;;;;6.05;2.65;;;;;;;6.49;63.11;102961.59;5069545;28;20489;-47
2021/04/25 00:38:56;;;;;;;5.32;2.60;;;;;;;6.42;63.59;102961.63;5070380;28;20055;-46
2021/04/25 00:41:23;;;;;;;4.32;2.25;;;;;;;6.37;63.50;102949.50;5053320;28;20421;-48
2021/04/25 00:43:50;;;;;;;6.20;2.63;;;;;;;6.35;63.69;102968.28;5073842;28;20051;-46
2021/04/25 00:46:19;;;;;;;5.95;2.47;;;;;;;6.35;63.88;102951.63;5073248;28;20087;-48
2021/04/25 00:48:46;;;;;;;8.45;2.78;;;;;;;6.37;64.05;102961.44;5074161;28;20068;-48
2021/04/25 00:51:14;;;;;;;6.38;2.58;;;;;;;6.39;63.96;102952.91;5071521;28;20190;-46
2021/04/25 00:53:42;;;;;;;5.32;2.30;;;;;;;6.43;63.76;102954.16;5073632;28;20068;-49
2021/04/25 00:56:10;;;;;;;9.63;3.30;;;;;;;6.46;63.75;102959.25;5072906;28;20060;-47
2021/04/25 00:58:38;;;;;;;6.75;3.28;;;;;;;6.49;63.87;102954.13;5073704;28;20048;-46
2021/04/25 01:01:05;;;;;;;4.78;2.78;;;;;;;6.53;63.89;102949.84;5073485;28;20134;-48
2021/04/25 01:03:33;;;;;;;7.47;2.88;;;;;;;6.57;63.70;102956.66;5073087;28;20048;-48
2021/04/25 01:06:00;;;;;;;8.55;3.45;;;;;;;6.61;64.08;102962.59;5073279;28;20036;-46
2021/04/25 01:08:26;;;;;;;8.85;3.10;;;;;;;6.66;64.17;102956.38;5073606;28;20079;-46
2021/04/25 01:10:53;;;;;;;10.57;3.47;;;;;;;6.69;64.50;102953.16;5072794;28;20076;-48
2021/04/25 01:13:20;;;;;;;9.98;3.00;;;;;;;6.74;64.72;102961.69;5073546;28;20045;-46
2021/04/25 01:15:47;;;;;;;8.18;3.20;;;;;;;6.77;64.46;102958.47;5073137;28;20405;-48
2021/04/25 01:18:14;;;;;;;7.60;3.10;;;;;;;6.78;64.58;102951.84;5072492;28;20494;-48
2021/04/25 01:20:42;;;;;;;9.20;2.90;;;;;;;6.80;64.13;102960.78;5072855;28;20048;-48
2021/04/25 01:23:10;;;;;;;6.40;2.90;;;;;;;6.82;64.00;102962.25;5069787;28;20055;-48
2021/04/25 01:25:36;;;;;;;7.07;2.90;;;;;;;6.85;63.88;102952.63;5073030;28;20053;-48
2021/04/25 01:28:04;;;;;;;8.50;2.90;;;;;;;6.86;63.52;102960.75;5073080;28;20045;-48
2021/04/25 01:30:33;;;;;;;7.47;2.75;;;;;;;6.88;63.00;102968.84;5073291;28;20086;-46
2021/04/25 01:33:00;;;;;;;8.27;2.65;;;;;;;6.89;63.28;102965.00;5072207;28;20052;-48
2021/04/25 01:35:28;;;;;;;7.65;2.83;;;;;;;6.89;63.36;102960.31;5072868;28;20068;-46
2021/04/25 01:37:57;;;;;;;9.02;2.70;;;;;;;6.89;62.95;102963.06;5072538;28;20189;-46
2021/04/25 01:40:31;;;;;;;9.48;2.90;;;;;;;6.90;62.79;102967.56;5072173;28;20490;-45
2021/04/25 01:43:00;;;;;;;9.27;3.13;;;;;;;6.88;61.97;102971.63;5072774;28;20086;-48
2021/04/25 01:45:28;;;;;;;9.07;3.33;;;;;;;6.86;61.68;102971.00;5072214;28;20060;-46
2021/04/25 01:47:57;;;;;;;7.13;2.75;;;;;;;6.87;61.40;102981.03;5072295;28;20444;-47
2021/04/25 01:50:26;;;;;;;6.82;2.95;;;;;;;6.86;61.57;102980.16;5072658;28;20059;-46
2021/04/25 01:52:54;;;;;;;5.97;2.72;;;;;;;6.85;61.26;102975.69;5071741;28;20071;-47
2021/04/25 01:55:22;;;;;;;8.48;2.55;;;;;;;6.84;61.10;102975.91;5072695;28;20049;-48
2021/04/25 01:57:50;;;;;;;8.57;2.38;;;;;;;6.81;60.30;102973.56;5072196;28;20068;-46
2021/04/25 02:00:21;;;;;;;6.00;2.65;;;;;;;6.81;60.68;102973.56;5071863;28;20102;-47
2021/04/25 02:02:54;;;;;;;6.57;2.70;;;;;;;6.79;60.51;102976.59;5072499;28;20489;-47
2021/04/25 02:05:21;;;;;;;7.95;2.92;;;;;;;6.75;60.40;102968.94;5072541;28;20064;-47
2021/04/25 02:07:49;;;;;;;5.88;2.38;;;;;;;6.74;60.08;102973.63;5071498;28;20502;-51
2021/04/25 02:10:16;;;;;;;6.57;2.53;;;;;;;6.71;59.61;102987.09;5072441;28;20049;-45
2021/04/25 02:12:43;;;;;;;7.43;2.65;;;;;;;6.67;59.41;102977.50;5072034;28;20105;-48
2021/04/25 02:15:12;;;;;;;6.30;2.35;;;;;;;6.64;59.18;102981.56;5071422;28;20052;-48
2021/04/25 02:17:42;;;;;;;5.45;2.08;;;;;;;6.64;58.98;102977.94;5072111;28;20110;-49
2021/04/25 02:20:10;;;;;;;5.55;2.70;;;;;;;6.62;59.25;102974.53;5072176;28;20409;-50
2021/04/25 02:22:37;;;;;;;8.65;2.35;;;;;;;6.60;58.92;102971.97;5071364;28;20040;-46
2021/04/25 02:25:07;;;;;;;6.78;2.17;;;;;;;6.60;59.02;102971.13;5071861;28;20040;-50
2021/04/25 02:27:34;;;;;;;6.60;2.35;;;;;;;6.57;58.77;102973.31;5071445;28;20064;-51
2021/04/25 02:30:01;;;;;;;4.90;2.30;;;;;;;6.57;58.95;102969.69;5071636;28;20105;-46
2021/04/25 02:32:29;;;;;;;8.27;2.50;;;;;;;6.58;58.92;102971.38;5072042;28;20044;-48
2021/04/25 02:34:56;;;;;;;6.68;2.30;;;;;;;6.59;59.11;102972.22;5071062;28;20397;-45
2021/04/25 02:37:22;;;;;;;4.97;2.30;;;;;;;6.59;59.32;102975.00;5071712;28;20404;-47
2021/04/25 02:39:49;;;;;;;7.45;2.72;;;;;;;6.58;59.14;102968.59;5071281;28;20519;-46
2021/04/25 02:42:17;;;;;;;8.90;2.80;;;;;;;6.59;59.15;102959.22;5070883;28;20045;-48
2021/04/25 02:44:43;;;;;;;6.85;2.47;;;;;;;6.57;59.72;102955.81;5071144;28;20098;-47
2021/04/25 02:47:10;;;;;;;5.53;2.20;;;;;;;6.57;59.33;102951.09;5071595;28;20101;-48
2021/04/25 02:49:38;;;;;;;8.65;2.80;;;;;;;6.59;59.87;102950.03;5070775;28;20075;-49
2021/04/25 02:52:06;;;;;;;6.45;2.20;;;;;;;6.60;59.90;102957.25;5071442;28;20041;-46
2021/04/25 02:54:33;;;;;;;6.60;2.50;;;;;;;6.61;59.87;102950.63;5071347;28;20126;-52
2021/04/25 02:57:01;;;;;;;6.07;2.33;;;;;;;6.63;60.03;102948.50;5070914;28;20135;-51
2021/04/25 02:59:27;;;;;;;6.50;2.47;;;;;;;6.63;60.39;102943.81;5071177;28;20048;-49
2021/04/25 03:01:54;;;;;;;7.40;2.85;;;;;;;6.66;60.25;102953.59;5071511;28;20126;-49
2021/04/25 03:04:21;;;;;;;6.32;2.35;;;;;;;6.65;60.38;102944.44;5070227;28;20036;-47
2021/04/25 03:06:49;;;;;;;6.93;2.75;;;;;;;6.65;60.64;102947.22;5071425;28;20106;-47
2021/04/25 03:09:16;;;;;;;6.95;2.33;;;;;;;6.64;60.32;102948.28;5071010;28;20126;-48
2021/04/25 03:11:43;;;;;;;7.93;2.60;;;;;;;6.65;60.22;102946.34;5070687;28;20044;-48
2021/04/25 03:14:10;;;;;;;8.30;2.38;;;;;;;6.64;60.12;102950.19;5071758;28;20428;-47
2021/04/25 03:16:37;;;;;;;7.30;2.50;;;;;;;6.64;59.99;102944.66;5070095;28;20555;-48
2021/04/25 03:19:04;;;;;;;7.63;2.90;;;;;;;6.62;59.57;102953.19;5071126;28;20485;-48
2021/04/25 03:21:30;;;;;;;6.90;2.15;;;;;;;6.61;59.51;102958.97;5070962;28;20124;-49
2021/04/25 03:23:58;;;;;;;7.60;2.20;;;;;;;6.57;59.50;102951.09;5070657;28;20045;-53
2021/04/25 03:26:25;;;;;;;4.80;2.00;;;;;;;6.54;59.03;102965.41;5070931;28;20045;-49
2021/04/25 03:28:52;;;;;;;6.55;2.35;;;;;;;6.51;59.06;102951.97;5071280;28;20044;-46
2021/04/25 03:31:19;;;;;;;6.50;2.38;;;;;;;6.48;58.96;102954.34;5070367;28;20128;-46
2021/04/25 03:33:46;;;;;;;4.63;1.90;;;;;;;6.46;58.62;102951.78;5071096;28;20059;-47
2021/04/25 03:36:14;;;;;;;6.63;1.98;;;;;;;6.45;58.91;102955.63;5070361;28;20090;-46
2021/04/25 03:38:41;;;;;;;5.22;1.98;;;;;;;6.45;58.67;102946.47;5070294;28;20104;-46
2021/04/25 03:41:08;;;;;;;7.63;2.28;;;;;;;6.45;59.05;102943.69;5070868;28;20113;-47
2021/04/25 03:43:35;;;;;;;9.18;2.17;;;;;;;6.45;58.95;102949.22;5070876;28;20520;-46
2021/04/25 03:46:02;;;;;;;7.00;2.53;;;;;;;6.45;58.96;102947.31;5069881;28;20051;-48
2021/04/25 03:48:29;;;;;;;8.05;2.40;;;;;;;6.44;58.82;102940.06;5070861;28;20071;-48
2021/04/25 03:50:56;;;;;;;5.82;1.80;;;;;;;6.42;59.19;102947.75;5070394;28;20047;-49
2021/04/25 03:53:23;;;;;;;6.88;2.28;;;;;;;6.43;58.87;102945.81;5070170;28;20102;-51
2021/04/25 03:55:50;;;;;;;8.82;2.42;;;;;;;6.42;59.41;102947.75;5070658;28;20041;-47
2021/04/25 03:58:18;;;;;;;7.22;2.50;;;;;;;6.41;59.31;102946.03;5070554;28;20510;-47
2021/04/25 04:00:45;;;;;;;7.25;2.20;;;;;;;6.42;59.15;102952.44;5069934;28;20335;-50
2021/04/25 04:03:12;;;;;;;6.45;1.92;;;;;;;6.42;59.18;102941.34;5070805;28;20122;-48
2021/04/25 04:05:39;;;;;;;4.00;1.38;;;;;;;6.39;59.11;102942.66;5070629;28;20102;-47
2021/04/25 04:08:06;;;;;;;7.57;1.92;;;;;;;6.39;59.16;102951.00;5051964;28;20459;-50
2021/04/25 04:10:32;;;;;;;6.00;1.67;;;;;;;6.37;59.27;102939.25;5070858;28;20045;-47
2021/04/25 04:12:59;;;;;;;5.20;1.40;;;;;;;6.37;59.24;102936.50;5069501;28;20056;-45
2021/04/25 04:15:27;;;;;;;6.63;1.70;;;;;;;6.37;59.09;102942.03;5070563;28;20045;-46
2021/04/25 04:17:54;;;;;;;9.57;2.03;;;;;;;6.35;58.88;102941.41;5073509;28;20567;-48
2021/04/25 04:20:21;;;;;;;7.43;1.38;;;;;;;6.32;58.49;102935.44;5073317;28;20052;-46
2021/04/25 04:22:48;;;;;;;7.78;1.50;;;;;;;6.30;58.69;102932.03;5073497;28;20102;-46
2021/04/25 04:25:14;;;;;;;6.88;1.48;;;;;;;6.29;58.43;102930.34;5073671;28;20112;-45
2021/04/25 04:27:41;;;;;;;4.57;1.42;;;;;;;6.28;58.52;102931.41;5072570;28;20040;-45
2021/04/25 04:30:10;;;;;;;7.28;1.50;;;;;;;6.29;58.33;102924.78;5073533;28;20056;-45
2021/04/25 04:32:38;;;;;;;6.63;1.40;;;;;;;6.31;58.49;102922.66;5072884;28;20090;-46
2021/04/25 04:35:06;;;;;;;5.38;1.27;;;;;;;6.32;58.74;102924.34;5072778;28;20057;-45
2021/04/25 04:37:33;;;;;;;9.30;1.70;;;;;;;6.31;58.76;102936.50;5072573;28;20045;-45
2021/04/25 04:40:00;;;;;;;5.57;1.40;;;;;;;6.32;59.33;102935.44;5055090;28;20436;-47
2021/04/25 04:42:26;;;;;;;8.25;1.60;;;;;;;6.32;59.06;102935.44;5073314;28;20049;-46
2021/04/25 04:44:53;;;;;;;4.97;1.60;;;;;;;6.33;59.11;102931.59;5073594;28;20474;-46
2021/04/25 04:47:20;;;;;;;6.38;1.40;;;;;;;6.31;59.04;102934.59;5074141;28;20048;-47
2021/04/25 04:49:48;;;;;;;6.18;1.50;;;;;;;6.31;58.87;102931.81;5073175;28;20048;-46
2021/04/25 04:52:15;;;;;;;6.78;1.63;;;;;;;6.29;58.88;102936.72;5073762;28;20516;-46
2021/04/25 04:54:42;;;;;;;5.20;1.30;;;;;;;6.28;58.46;102936.94;5073338;28;20071;-48
2021/04/25 04:57:09;;;;;;;8.00;1.40;;;;;;;6.26;58.31;102934.38;5073186;28;20489;-45
2021/04/25 04:59:36;;;;;;;4.95;1.40;;;;;;;6.28;58.31;102937.78;5073290;28;20033;-48
2021/04/25 05:02:03;;;;;;;5.22;1.38;;;;;;;6.30;58.27;102938.44;5073404;28;20135;-49
2021/04/25 05:04:29;;;;;;;6.50;1.27;;;;;;;6.32;58.22;102936.28;5073113;28;20048;-47
2021/04/25 05:06:57;;;;;;;7.50;1.67;;;;;;;6.31;58.14;102937.38;5073494;28;20447;-46
2021/04/25 05:09:24;;;;;;;4.90;1.48;;;;;;;6.32;58.12;102935.44;5072611;28;20553;-48
2021/04/25 05:11:51;;;;;;;4.72;1.40;;;;;;;6.34;57.80;102933.31;5073502;28;20102;-46
2021/04/25 05:14:18;;;;;;;5.78;1.50;;;;;;;6.34;58.07;102923.06;5072854;28;20052;-49
2021/04/25 05:16:45;;;;;;;4.35;1.20;;;;;;;6.37;58.03;102942.03;5072938;28;20056;-51
2021/04/25 05:19:12;;;;;;;7.75;1.70;;;;;;;6.39;58.32;102933.50;5073209;28;20505;-47
2021/04/25 05:21:39;;;;;;;6.32;1.85;;;;;;;6.42;58.39;102931.09;5073341;28;20037;-51
2021/04/25 05:24:08;;;;;;;6.97;1.63;;;;;;;6.46;58.36;102928.75;5054512;28;20430;-49
2021/04/25 05:26:35;;;;;;;5.35;1.38;;;;;;;6.47;58.51;102945.16;5072669;28;20060;-46
2021/04/25 05:29:03;;;;;;;5.20;1.45;;;;;;;6.50;58.21;102943.88;5054658;28;20102;-46
2021/04/25 05:31:30;;;;;;;7.65;1.63;;;;;;;6.50;58.39;102944.75;5071835;28;20113;-49
2021/04/25 05:33:57;;;;;;;5.07;1.17;;;;;;;6.52;57.98;102952.84;5070932;28;20520;-46
2021/04/25 05:36:24;;;;;;;8.68;1.33;;;;;;;6.52;57.91;102953.69;5071438;28;20371;-48
2021/04/25 05:38:51;;;;;;;6.80;1.20;;;;;;;6.54;57.58;102945.16;5072836;28;20397;-46
2021/04/25 05:41:18;;;;;;;4.82;1.08;;;;;;;6.56;57.63;102945.78;5072299;28;20448;-48
2021/04/25 05:43:46;;;;;;;6.65;1.27;;;;;;;6.58;57.51;102954.72;5072253;28;20056;-50
2021/04/25 05:46:15;;;;;;;5.03;1.13;;;;;;;6.60;57.65;102951.72;5071989;28;20053;-46
2021/04/25 05:48:44;;;;;;;6.47;1.20;;;;;;;6.64;57.86;102944.66;5034622;28;20103;-47
2021/04/25 05:51:11;;;;;;;6.15;1.10;;;;;;;6.66;57.83;102942.50;5067139;28;20040;-47
2021/04/25 05:53:38;;;;;;;8.10;1.15;;;;;;;6.68;57.68;102945.91;5072108;28;20067;-48
2021/04/25 05:56:06;;;;;;;3.42;0.90;;;;;;;6.71;57.86;102943.56;5054153;28;20052;-47
2021/04/25 05:58:34;;;;;;;5.68;1.10;;;;;;;6.77;57.58;102944.59;5071836;28;20044;-47
2021/04/25 06:01:01;;;;;;;4.13;1.02;;;;;;;6.79;57.75;102946.06;5071950;28;20519;-48
2021/04/25 06:03:29;;;;;;;3.85;1.23;;;;;;;6.82;57.63;102941.97;5068504;28;20102;-50
2021/04/25 06:05:56;;;;;;;9.32;1.52;;;;;;;6.84;58.14;102939.84;5069675;28;20055;-50
2021/04/25 06:08:22;;;;;;;7.88;1.50;;;;;;;6.85;58.04;102942.38;5070835;28;20475;-48
2021/04/25 06:10:49;;;;;;;8.52;1.35;;;;;;;6.87;57.84;102945.78;5070511;28;20041;-47
2021/04/25 06:13:16;;;;;;;6.38;1.38;;;;;;;6.91;58.33;102943.44;5067544;28;20068;-45
2021/04/25 06:15:44;;;;;;;6.50;1.10;;;;;;;6.93;58.35;102943.22;5051800;28;20378;-51
2021/04/25 06:18:11;;;;;;;8.15;1.10;;;;;;;6.97;58.09;102956.41;5069950;28;20459;-48
2021/04/25 06:20:38;;;;;;;7.25;1.15;;;;;;;7.01;57.99;102954.03;5049982;28;20460;-49
2021/04/25 06:23:05;;;;;;;5.80;0.90;;;;;;;7.10;57.84;102956.31;5069719;28;20044;-47
2021/04/25 06:25:32;;;;;;;6.97;1.20;;;;;;;7.17;56.90;102957.13;5066157;28;20131;-49
2021/04/25 06:27:59;;;;;;;6.10;1.30;;;;;;;7.25;56.47;102962.38;5069183;28;20497;-48
2021/04/25 06:30:26;;;;;;;5.25;1.17;;;;;;;7.42;56.15;102964.59;5070000;28;20444;-50
2021/04/25 06:32:53;;;;;;;5.03;1.00;;;;;;;7.51;55.08;102964.09;5068489;28;20071;-47
2021/04/25 06:35:21;;;;;;;5.90;0.88;;;;;;;7.54;55.07;102960.88;5069130;28;20048;-49
2021/04/25 06:37:48;;;;;;;5.07;1.00;;;;;;;7.57;54.31;102965.97;5069144;28;20045;-50
2021/04/25 06:40:17;;;;;;;5.88;0.88;;;;;;;7.55;54.33;102964.50;5069429;28;20071;-49
2021/04/25 06:42:44;;;;;;;5.50;1.00;;;;;;;7.55;54.44;102962.56;5069091;28;20071;-47
2021/04/25 06:45:13;;;;;;;5.80;1.00;;;;;;;7.54;54.69;102965.56;5069356;28;20170;-49
2021/04/25 06:47:41;;;;;;;6.72;0.98;;;;;;;7.55;55.41;102975.63;5069257;28;20057;-50
2021/04/25 06:50:13;;;;;;;5.85;1.23;;;;;;;7.56;55.45;102971.75;5069270;28;20048;-48
2021/04/25 06:52:42;;;;;;;4.55;0.95;;;;;;;7.55;55.21;102982.03;5069334;28;20135;-47
2021/04/25 06:55:11;;;;;;;3.70;1.00;;;;;;;7.57;55.75;102984.56;5068869;28;20102;-50
2021/04/25 06:57:38;;;;;;;4.00;1.02;;;;;;;7.55;55.90;102981.16;5068791;28;20051;-49
2021/04/25 07:00:06;;;;;;;8.43;1.10;;;;;;;7.54;56.05;102982.25;5068899;28;20040;-51
2021/04/25 07:02:34;;;;;;;8.57;0.93;;;;;;;7.54;56.19;102987.81;5064780;28;20037;-48
2021/04/25 07:05:01;;;;;;;7.65;1.35;;;;;;;7.53;56.66;102983.31;5051340;28;20466;-48
2021/04/25 07:07:29;;;;;;;5.68;1.17;;;;;;;7.55;56.81;102982.03;5069735;28;20041;-51
2021/04/25 07:09:56;;;;;;;4.45;1.20;;;;;;;7.57;57.09;102987.34;5050693;28;20434;-49
2021/04/25 07:12:23;;;;;;;6.15;1.00;;;;;;;7.59;57.34;102982.41;5069322;28;20036;-50
2021/04/25 07:14:50;;;;;;;8.10;1.13;;;;;;;7.65;57.11;102984.25;5069157;28;20044;-47
2021/04/25 07:17:17;;;;;;;4.53;1.00;;;;;;;7.69;57.65;102979.97;5068651;28;20087;-51
2021/04/25 07:19:43;;;;;;;10.05;1.70;;;;;;;7.76;57.11;102982.69;5068797;28;20044;-48
2021/04/25 07:22:11;;;;;;;6.78;1.15;;;;;;;7.83;57.10;102986.22;5068605;28;20733;-49
2021/04/25 07:24:38;;;;;;;5.60;0.98;;;;;;;7.87;56.73;102996.66;5068601;28;20414;-48
2021/04/25 07:27:06;;;;;;;4.68;1.00;;;;;;;7.92;56.25;102996.00;5069007;28;20048;-47
2021/04/25 07:29:33;;;;;;;4.88;1.10;;;;;;;7.97;55.83;102986.97;5064655;28;20056;-49
2021/04/25 07:32:00;;;;;;;5.47;1.55;;;;;;;8.03;55.63;102988.81;5068427;28;20059;-49
2021/04/25 07:34:27;;;;;;;4.85;1.25;;;;;;;8.10;55.95;102989.59;5069035;28;20472;-48
2021/04/25 07:36:54;;;;;;;3.78;0.90;;;;;;;8.18;55.65;102994.88;5068479;28;20048;-47
2021/04/25 07:39:21;;;;;;;4.50;1.33;;;;;;;8.22;54.67;102998.84;5068467;28;20098;-50
2021/04/25 07:41:49;;;;;;;5.50;1.00;;;;;;;8.29;55.27;102991.31;5069382;28;20052;-47
2021/04/25 07:44:17;;;;;;;3.63;1.10;;;;;;;8.43;55.10;102994.78;5068152;28;20433;-48
2021/04/25 07:46:44;;;;;;;6.75;1.25;;;;;;;8.54;54.84;102994.03;5068957;28;20057;-48
2021/04/25 07:49:12;;;;;;;5.45;1.10;;;;;;;8.63;53.89;102999.03;5068111;28;20386;-54
2021/04/25 07:51:39;;;;;;;3.88;1.00;;;;;;;8.77;53.23;102993.31;5072746;28;20066;-46
2021/04/25 07:54:06;;;;;;;4.43;1.00;;;;;;;8.88;52.70;102993.34;5072947;28;20040;-51
2021/04/25 07:56:33;;;;;;;5.72;1.40;;;;;;;8.99;52.17;102994.50;5073042;28;20068;-49
2021/04/25 07:59:01;;;;;;;3.22;0.82;;;;;;;9.06;51.94;102995.22;5071904;28;20040;-49
2021/04/25 08:01:29;;;;;;;3.25;0.90;;;;;;;9.08;51.46;102987.47;5073304;28;20102;-48
2021/04/25 08:03:57;;;;;;;4.70;1.10;;;;;;;9.08;51.57;102992.22;5072760;28;20052;-47
2021/04/25 08:06:25;;;;;;;3.95;1.00;;;;;;;9.07;51.55;102990.50;5070951;28;20037;-46
2021/04/25 08:08:52;;;;;;;4.10;1.10;;;;;;;9.08;51.89;102992.22;5072709;28;20102;-46
2021/04/25 08:11:20;;;;;;;3.42;1.05;;;;;;;9.09;51.62;102999.47;5072345;28;20139;-49
2021/04/25 08:13:47;;;;;;;4.38;1.00;;;;;;;9.10;51.47;102999.25;5072483;28;20045;-47
2021/04/25 08:16:14;;;;;;;3.90;0.95;;;;;;;9.19;51.62;102994.19;5072134;28;20040;-49
2021/04/25 08:18:41;;;;;;;4.38;1.05;;;;;;;9.28;51.35;102996.38;5069784;28;20473;-48
2021/04/25 08:21:09;;;;;;;6.68;1.35;;;;;;;9.41;51.28;103002.81;5071539;28;20083;-46
2021/04/25 08:23:36;;;;;;;4.03;1.00;;;;;;;9.50;50.76;102999.47;5072684;28;20068;-48
2021/04/25 08:26:04;;;;;;;3.15;1.08;;;;;;;9.50;50.49;103002.25;5067557;28;20064;-45
2021/04/25 08:28:31;;;;;;;5.55;1.00;;;;;;;9.51;50.21;102998.38;5072852;28;20135;-47
2021/04/25 08:30:58;;;;;;;7.55;1.48;;;;;;;9.51;50.55;103003.94;5053202;28;20063;-51
2021/04/25 08:33:26;;;;;;;5.13;1.33;;;;;;;9.54;50.04;103003.47;5071989;28;20558;-46
2021/04/25 08:35:53;;;;;;;7.72;1.55;;;;;;;9.67;49.72;103002.38;5072181;28;20072;-48
2021/04/25 08:38:20;;;;;;;6.10;1.25;;;;;;;9.80;49.55;103004.94;5072170;28;20076;-49
2021/04/25 08:40:47;;;;;;;4.40;1.00;;;;;;;9.84;49.46;103008.94;5071771;28;20160;-47
2021/04/25 08:43:15;;;;;;;3.88;0.70;;;;;;;9.81;49.46;103012.22;5072083;28;20036;-49
2021/04/25 08:45:45;;;;;;;5.38;1.45;;;;;;;9.77;49.61;103013.81;5071555;28;20476;-46
2021/04/25 08:48:13;;;;;;;4.07;1.00;;;;;;;9.73;49.63;103018.16;5053699;28;20048;-47
2021/04/25 08:50:42;;;;;;;5.65;1.13;;;;;;;9.77;50.13;103010.16;5071951;28;20713;-48
2021/04/25 08:53:10;;;;;;;5.72;0.80;;;;;;;9.85;50.03;103005.06;5071670;28;20086;-49
2021/04/25 08:55:37;;;;;;;4.05;1.30;;;;;;;9.92;49.89;103014.16;5071483;28;20459;-47
2021/04/25 08:58:08;;;;;;;4.00;0.90;;;;;;;9.99;49.99;103011.28;5072045;28;20053;-47
2021/04/25 09:00:36;;;;;;;3.35;0.85;;;;;;;10.16;49.87;103016.97;5072169;28;20440;-47
2021/04/25 09:03:03;;;;;;;5.72;1.08;;;;;;;10.17;49.83;103013.06;5068740;28;20048;-49
2021/04/25 09:05:31;;;;;;;4.90;1.08;;;;;;;10.09;50.27;103013.44;5071948;28;20049;-46
2021/04/25 09:08:01;;;;;;;6.13;1.13;;;;;;;9.98;50.48;103004.84;5071879;28;20057;-48
2021/04/25 09:10:32;;;;;;;5.47;1.20;;;;;;;9.89;51.02;103011.00;5071728;28;20114;-47
2021/04/25 09:13:13;;;;;;;9.40;1.20;;;;;;;9.86;51.59;103003.97;5071475;28;20037;-47
2021/04/25 09:15:39;;;;;;;4.60;0.93;;;;;;;9.84;51.49;103008.94;5071302;28;20067;-48
2021/04/25 09:18:06;;;;;;;6.22;1.25;;;;;;;9.82;51.84;103005.53;5071783;28;20111;-47
2021/04/25 09:20:39;;;;;;;5.07;1.10;;;;;;;9.77;52.17;103005.44;5070396;28;20044;-47
2021/04/25 09:23:08;;;;;;;6.43;1.10;;;;;;;9.75;52.18;103003.97;5067231;28;20048;-47
2021/04/25 09:25:35;;;;;;;4.97;1.15;;;;;;;9.73;52.72;103023.75;5071780;28;20048;-51
2021/04/25 09:28:11;;;;;;;6.28;1.27;;;;;;;9.66;53.47;103012.69;5067115;28;20440;-49
2021/04/25 09:30:38;;;;;;;4.63;1.10;;;;;;;9.60;54.17;103019.22;5067360;28;20401;-47
2021/04/25 09:33:09;;;;;;;4.15;1.10;;;;;;;9.61;54.51;103014.50;5052885;28;20072;-48
2021/04/25 09:35:38;;;;;;;4.53;1.00;;;;;;;9.63;54.86;103018.75;5068058;28;20037;-47
2021/04/25 09:38:13;;;;;;;5.82;1.15;;;;;;;9.62;55.12;103018.97;5066703;28;20036;-49
2021/04/25 09:40:42;;;;;;;3.60;0.93;;;;;;;9.56;55.51;103017.16;5068291;28;20052;-47
2021/04/25 09:43:11;;;;;;;5.55;1.67;;;;;;;9.53;55.36;103006.50;5071700;28;20040;-46
2021/04/25 09:45:41;;;;;;;8.00;1.40;;;;;;;9.56;55.56;103009.66;5070665;28;20049;-47
2021/04/25 09:48:26;;;;;;;4.65;1.00;;;;;;;9.70;55.49;103003.84;5052743;28;20052;-48
2021/04/25 09:51:12;;;;;;;4.07;1.25;;;;;;;9.69;54.97;103011.38;5070419;28;20044;-48
2021/04/25 09:53:42;;;;;;;5.97;1.10;;;;;;;9.62;55.15;103005.88;5049770;28;20502;-49
2021/04/25 09:56:10;;;;;;;4.43;1.42;;;;;;;9.63;54.99;103007.59;5071006;28;20085;-49
2021/04/25 09:59:01;;;;;;;5.13;1.17;;;;;;;9.65;54.89;103002.63;5070213;28;20068;-49
2021/04/25 10:01:29;;;;;;;2.55;0.90;;;;;;;9.52;54.10;103004.81;5052810;28;20110;-49
2021/04/25 10:03:58;;;;;;;4.32;0.90;;;;;;;9.48;53.60;103003.56;5070340;28;20044;-47
2021/04/25 10:06:25;;;;;;;3.92;1.13;;;;;;;9.48;53.16;103001.63;5051480;28;20045;-48
2021/04/25 10:08:53;;;;;;;3.95;0.90;;;;;;;9.51;52.90;102991.94;5070475;28;20067;-48
2021/04/25 10:11:24;;;;;;;4.57;1.10;;;;;;;9.54;52.58;102994.25;5070621;28;20115;-47
2021/04/25 10:13:51;;;;;;;3.95;0.73;;;;;;;9.60;52.20;102987.69;5068430;28;20048;-47
2021/04/25 10:16:20;;;;;;;4.72;1.10;;;;;;;9.74;52.17;102991.97;5068623;28;20564;-47
2021/04/25 10:18:48;;;;;;;3.75;1.13;;;;;;;9.85;51.73;102995.84;5069886;28;20057;-51
2021/04/25 10:21:16;;;;;;;4.00;1.08;;;;;;;9.90;51.48;102991.25;5070794;28;20560;-47
2021/04/25 10:23:43;;;;;;;5.22;1.20;;;;;;;9.95;51.35;102996.09;5070025;28;20045;-47
2021/04/25 10:26:13;;;;;;;6.25;0.90;;;;;;;9.94;50.82;102995.25;5069379;28;20044;-50
2021/04/25 10:28:45;;;;;;;5.57;1.35;;;;;;;9.95;50.75;103002.53;5068778;28;20390;-49
2021/04/25 10:31:19;;;;;;;5.47;1.30;;;;;;;9.94;50.34;102991.63;5068325;28;20036;-48
2021/04/25 10:33:54;;;;;;;3.90;1.15;;;;;;;9.93;49.25;102993.56;5068658;28;20481;-49
2021/04/25 10:36:22;;;;;;;4.05;1.00;;;;;;;9.97;49.63;102988.34;5068094;28;20044;-47
2021/04/25 10:38:49;;;;;;;4.93;1.00;;;;;;;10.05;49.21;102999.13;5068735;28;20109;-50
2021/04/25 10:41:20;;;;;;;4.28;0.90;;;;;;;10.14;49.00;102994.03;5067735;28;20405;-47
2021/04/25 10:44:00;;;;;;;4.80;0.80;;;;;;;10.20;47.82;102995.84;5070016;28;20094;-47
2021/04/25 10:46:47;;;;;;;5.80;1.02;;;;;;;10.23;48.09;102993.44;5069601;28;20098;-49
2021/04/25 10:49:32;;;;;;;5.10;1.10;;;;;;;10.24;47.41;102994.28;5069804;28;20040;-51
2021/04/25 10:52:22;;;;;;;7.65;1.20;;;;;;;10.29;47.49;102992.47;5069459;28;20036;-47
2021/04/25 10:55:28;;;;;;;3.45;0.93;;;;;;;10.29;47.23;102988.81;5067412;28;20106;-48
2021/04/25 10:58:22;;;;;;;3.85;0.77;;;;;;;10.36;47.38;102995.13;5069343;28;20040;-48
2021/04/25 11:00:49;;;;;;;3.33;0.90;;;;;;;10.43;47.48;102994.97;5066923;28;20414;-50
2021/04/25 11:03:42;;;;;;;5.13;0.93;;;;;;;10.50;46.43;102995.69;5069785;28;20075;-46
2021/04/25 11:06:33;;;;;;;4.75;0.90;;;;;;;10.50;46.00;102977.00;5065305;28;20044;-48
2021/04/25 11:09:01;;;;;;;6.65;1.42;;;;;;;10.54;46.56;102981.00;5054521;28;20497;-48
2021/04/25 11:11:33;;;;;;;5.05;0.93;;;;;;;10.66;46.13;102979.00;5067731;28;20567;-49
2021/04/25 11:14:01;;;;;;;;;;;;;;;10.72;44.96;102979.13;5068694;28;20104;-48
2021/04/25 11:16:29;;;;;;;3.45;0.80;;;;;;;10.77;46.19;102970.84;5067404;28;19928;-49
2021/04/25 11:19:00;;;;;;;4.32;1.00;;;;;;;10.80;45.88;102967.53;5067750;28;20044;-48
2021/04/25 11:21:55;;;;;;;4.97;1.00;;;;;;;10.88;45.26;102961.56;5068340;28;21465;-53
2021/04/25 11:24:43;;;;;;;5.68;0.90;;;;;;;10.72;45.11;102963.22;5062728;28;20048;-47
2021/04/25 11:27:35;;;;;;;4.93;1.48;;;;;;;10.59;45.74;102963.53;5065589;28;20489;-49
2021/04/25 11:30:05;;;;;;;;;;;;;;;10.49;45.69;102966.09;5047494;28;20048;-47
2021/04/25 11:32:40;;;;;;;4.30;1.00;;;;;;;10.58;47.05;102954.28;5064911;28;19924;-50
2021/04/25 11:35:13;;;;;;;5.90;1.25;;;;;;;10.74;46.89;102962.97;5068156;28;20052;-48
2021/04/25 11:37:44;;;;;;;4.97;1.10;;;;;;;10.79;47.01;102966.69;5068181;28;20114;-47
2021/04/25 11:40:12;;;;;;;6.38;1.50;;;;;;;10.77;47.16;102962.47;5068777;28;20561;-47
2021/04/25 11:42:47;;;;;;;8.02;1.20;;;;;;;10.74;47.55;102958.22;5069055;28;20040;-46